createdAt,value
2019-03-23T00:00:59.764Z,85.75
2019-03-23T00:03:34.344Z,85.57
2019-03-23T00:06:08.793Z,85.70
2019-03-23T00:08:43.772Z,85.72
2019-03-23T00:11:18.309Z,85.63
2019-03-23T00:13:52.604Z,85.51
2019-03-23T00:16:26.990Z,85.48
2019-03-23T00:19:01.409Z,85.46
2019-03-23T00:21:36.196Z,85.58
2019-03-23T00:24:10.522Z,85.68
2019-03-23T00:26:44.936Z,85.31
2019-03-23T00:29:19.315Z,85.51
2019-03-23T00:31:53.656Z,85.50
2019-03-23T00:34:28.344Z,85.41
2019-03-23T00:37:02.679Z,85.14
2019-03-23T00:39:37.512Z,85.53
2019-03-23T00:42:11.944Z,85.17
2019-03-23T00:44:46.335Z,85.34
2019-03-23T00:47:20.745Z,85.04
2019-03-23T00:49:55.138Z,85.50
2019-03-23T00:52:29.576Z,85.66
2019-03-23T00:55:04.253Z,86.17
2019-03-23T00:57:38.722Z,86.17
2019-03-23T01:00:13.710Z,85.84
2019-03-23T01:02:48.244Z,85.84
2019-03-23T01:05:22.617Z,85.99
2019-03-23T01:07:56.939Z,86.65
2019-03-23T01:10:31.611Z,86.76
2019-03-23T01:13:06.081Z,87.34
2019-03-23T01:15:40.375Z,87.34
2019-03-23T01:18:14.736Z,88.23
2019-03-23T01:20:49.831Z,88.09
2019-03-23T01:23:24.355Z,88.04
2019-03-23T01:25:58.711Z,88.01
2019-03-23T01:28:33.285Z,88.28
2019-03-23T01:31:07.711Z,88.43
2019-03-23T01:33:42.073Z,88.55
2019-03-23T01:36:16.712Z,88.80
2019-03-23T01:38:51.065Z,88.80
2019-03-23T01:41:25.389Z,88.96
2019-03-23T01:43:59.848Z,89.07
2019-03-23T01:46:34.583Z,89.29
2019-03-23T01:49:08.930Z,89.59
2019-03-23T01:51:43.231Z,89.59
2019-03-23T01:54:17.733Z,89.66
2019-03-23T01:56:52.184Z,89.61
2019-03-23T01:59:26.854Z,89.61
2019-03-23T02:02:01.277Z,89.81
2019-03-23T02:04:35.660Z,89.79
2019-03-23T02:07:14.177Z,90.06
2019-03-23T02:09:46.467Z,90.06
2019-03-23T02:12:20.759Z,90.23
2019-03-23T02:14:55.448Z,90.31
2019-03-23T02:17:29.842Z,90.45
2019-03-23T02:20:04.782Z,90.35
2019-03-23T02:22:40.182Z,90.43
2019-03-23T02:25:14.726Z,90.43
2019-03-23T02:27:49.054Z,90.86
2019-03-23T02:30:23.776Z,90.72
2019-03-23T02:32:58.071Z,90.72
2019-03-23T02:35:32.458Z,90.61
2019-03-23T02:38:06.850Z,90.18
2019-03-23T02:40:41.430Z,89.62
2019-03-23T02:43:15.768Z,89.40
2019-03-23T02:45:50.475Z,89.40
2019-03-23T02:48:24.896Z,89.30
2019-03-23T02:50:59.397Z,89.14
2019-03-23T02:53:33.729Z,89.11
2019-03-23T02:56:08.053Z,89.55
2019-03-23T02:58:42.558Z,89.87
2019-03-23T03:01:16.931Z,90.05
2019-03-23T03:03:51.527Z,90.00
2019-03-23T03:06:26.002Z,89.71
2019-03-23T03:09:00.355Z,89.01
2019-03-23T03:11:34.792Z,88.51
2019-03-23T03:14:09.503Z,88.13
2019-03-23T03:16:43.924Z,88.05
2019-03-23T03:19:18.246Z,88.00
2019-03-23T03:21:52.714Z,88.82
2019-03-23T03:24:27.313Z,89.58
2019-03-23T03:27:02.004Z,90.70
2019-03-23T03:29:36.636Z,91.07
2019-03-23T03:32:11.047Z,91.20
2019-03-23T03:34:45.464Z,91.13
2019-03-23T03:37:19.851Z,91.09
2019-03-23T03:39:54.521Z,90.87
2019-03-23T03:42:29.264Z,90.70
2019-03-23T03:45:03.873Z,90.75
2019-03-23T03:47:41.311Z,90.84
2019-03-23T03:50:14.571Z,91.69
2019-03-23T03:52:48.957Z,91.69
2019-03-23T03:55:23.891Z,92.16
2019-03-23T03:57:58.751Z,91.99
2019-03-23T04:00:33.087Z,91.83
2019-03-23T04:03:07.437Z,91.78
2019-03-23T04:05:41.839Z,91.70
2019-03-23T04:08:16.240Z,91.77
2019-03-23T04:10:50.569Z,91.77
2019-03-23T04:13:25.724Z,91.56
2019-03-23T04:16:00.075Z,91.56
2019-03-23T04:18:34.455Z,91.67
2019-03-23T04:21:09.562Z,91.63
2019-03-23T04:23:44.328Z,91.63
2019-03-23T04:26:18.821Z,91.59
2019-03-23T04:28:53.199Z,91.53
2019-03-23T04:31:27.621Z,91.51
2019-03-23T04:34:01.980Z,91.56
2019-03-23T04:36:36.408Z,91.48
2019-03-23T04:39:11.404Z,91.46
2019-03-23T04:41:45.702Z,91.44
2019-03-23T04:44:20.089Z,91.44
2019-03-23T04:46:54.375Z,91.35
2019-03-23T04:49:28.807Z,91.21
2019-03-23T04:52:03.627Z,91.10
2019-03-23T04:54:39.030Z,90.79
2019-03-23T04:57:13.479Z,90.79
2019-03-23T04:59:48.215Z,90.91
2019-03-23T05:02:22.636Z,90.91
2019-03-23T05:04:57.696Z,91.12
2019-03-23T05:07:32.026Z,91.44
2019-03-23T05:10:07.276Z,91.38
2019-03-23T05:12:41.693Z,91.38
2019-03-23T05:15:16.162Z,91.01
2019-03-23T05:17:50.500Z,91.07
2019-03-23T05:20:32.206Z,90.72
2019-03-23T05:23:06.610Z,90.76
2019-03-23T05:25:40.999Z,90.76
2019-03-23T05:28:15.512Z,91.70
2019-03-23T05:30:49.906Z,92.04
2019-03-23T05:33:24.317Z,91.76
2019-03-23T05:35:59.130Z,91.84
2019-03-23T05:38:43.588Z,91.62
2019-03-23T05:41:09.832Z,91.62
2019-03-23T05:43:44.519Z,91.72
2019-03-23T05:46:18.899Z,91.72
2019-03-23T05:48:53.186Z,91.96
2019-03-23T05:51:27.543Z,91.96
2019-03-23T05:54:03.920Z,91.43
2019-03-23T05:56:38.304Z,91.24
2019-03-23T05:59:12.895Z,91.20
2019-03-23T06:01:47.271Z,91.41
2019-03-23T06:04:22.085Z,91.41
2019-03-23T06:06:56.525Z,91.50
2019-03-23T06:09:31.148Z,91.70
2019-03-23T06:12:05.628Z,91.87
2019-03-23T06:14:39.993Z,91.56
2019-03-23T06:17:14.492Z,91.51
2019-03-23T06:19:48.812Z,91.30
2019-03-23T06:22:23.262Z,91.11
2019-03-23T06:24:57.608Z,90.59
2019-03-23T06:27:32.153Z,90.93
2019-03-23T06:30:07.200Z,90.99
2019-03-23T06:32:42.014Z,91.14
2019-03-23T06:35:16.538Z,90.96
2019-03-23T06:37:51.019Z,90.71
2019-03-23T06:40:25.435Z,90.57
2019-03-23T06:43:00.170Z,90.49
2019-03-23T06:45:34.435Z,90.17
2019-03-23T06:48:08.906Z,89.97
2019-03-23T06:50:43.227Z,90.00
2019-03-23T06:53:17.648Z,89.78
2019-03-23T06:55:56.098Z,89.32
2019-03-23T06:58:30.432Z,88.99
2019-03-23T07:01:04.954Z,89.04
2019-03-23T07:03:40.170Z,88.44
2019-03-23T07:06:14.566Z,88.00
2019-03-23T07:08:50.921Z,87.35
2019-03-23T07:11:25.252Z,87.65
2019-03-23T07:13:59.910Z,87.34
2019-03-23T07:16:34.294Z,87.16
2019-03-23T07:19:08.659Z,86.97
2019-03-23T07:21:43.025Z,87.23
2019-03-23T07:24:17.536Z,86.88
2019-03-23T07:26:51.845Z,86.47
2019-03-23T07:29:26.331Z,86.31
2019-03-23T07:32:05.603Z,86.61
2019-03-23T07:34:36.922Z,86.27
2019-03-23T07:37:11.382Z,86.24
2019-03-23T07:39:45.697Z,86.70
2019-03-23T07:42:20.298Z,85.91
2019-03-23T07:44:54.978Z,85.82
2019-03-23T07:47:29.296Z,85.49
2019-03-23T07:50:04.090Z,84.85
2019-03-23T07:52:38.396Z,85.33
2019-03-23T07:55:14.149Z,85.08
2019-03-23T07:57:48.655Z,85.04
2019-03-23T08:00:23.746Z,84.37
2019-03-23T08:02:58.089Z,84.91
2019-03-23T08:05:32.465Z,84.84
2019-03-23T08:08:06.811Z,84.92
2019-03-23T08:10:41.299Z,84.88
2019-03-23T08:13:15.712Z,84.80
2019-03-23T08:15:50.146Z,84.59
2019-03-23T08:18:24.887Z,84.74
2019-03-23T08:20:59.274Z,84.67
2019-03-23T08:23:33.665Z,84.97
2019-03-23T08:26:08.100Z,85.27
2019-03-23T08:28:42.450Z,85.58
2019-03-23T08:31:16.856Z,85.18
2019-03-23T08:33:52.095Z,84.46
2019-03-23T08:36:26.604Z,84.38
2019-03-23T08:39:00.987Z,84.29
2019-03-23T08:41:35.558Z,83.81
2019-03-23T08:44:09.928Z,83.18
2019-03-23T08:46:46.282Z,84.02
2019-03-23T08:49:20.666Z,84.03
2019-03-23T08:51:55.103Z,83.29
2019-03-23T08:54:29.428Z,82.98
2019-03-23T08:57:03.831Z,83.04
2019-03-23T08:59:38.455Z,82.72
2019-03-23T09:02:13.225Z,82.53
2019-03-23T09:04:47.633Z,82.34
2019-03-23T09:07:21.999Z,82.44
2019-03-23T09:09:59.315Z,82.40
2019-03-23T09:12:32.730Z,81.96
2019-03-23T09:15:07.811Z,81.77
2019-03-23T09:17:42.858Z,81.30
2019-03-23T09:20:17.436Z,80.62
2019-03-23T09:22:51.772Z,79.14
2019-03-23T09:25:26.088Z,78.94
2019-03-23T09:28:00.596Z,78.37
2019-03-23T09:30:34.875Z,79.07
2019-03-23T09:33:09.185Z,77.79
2019-03-23T09:35:43.465Z,78.00
2019-03-23T09:38:18.123Z,78.17
2019-03-23T09:40:52.440Z,78.03
2019-03-23T09:43:26.764Z,77.74
2019-03-23T09:46:01.032Z,78.66
2019-03-23T09:48:35.415Z,78.27
2019-03-23T09:51:09.728Z,78.22
2019-03-23T09:53:44.588Z,78.78
2019-03-23T09:56:18.923Z,79.20
2019-03-23T09:58:53.539Z,79.26
2019-03-23T10:01:30.686Z,80.50
2019-03-23T10:04:05.071Z,80.41
2019-03-23T10:06:39.386Z,81.17
2019-03-23T10:09:13.824Z,81.03
2019-03-23T10:11:48.169Z,81.55
2019-03-23T10:14:22.602Z,81.30
2019-03-23T10:16:57.134Z,81.58
2019-03-23T10:19:31.410Z,81.52
2019-03-23T10:22:05.799Z,81.44
2019-03-23T10:24:40.554Z,81.72
2019-03-23T10:27:14.795Z,80.88
2019-03-23T10:29:49.329Z,79.74
2019-03-23T10:32:24.190Z,80.14
2019-03-23T10:34:58.724Z,80.30
2019-03-23T10:37:33.034Z,78.89
2019-03-23T10:40:07.865Z,78.32
2019-03-23T10:42:43.402Z,77.26
2019-03-23T10:45:18.063Z,75.73
2019-03-23T10:47:52.978Z,75.11
2019-03-23T10:50:27.326Z,74.13
2019-03-23T10:53:01.728Z,73.47
2019-03-23T10:55:36.309Z,72.55
2019-03-23T10:58:10.544Z,71.85
2019-03-23T11:00:44.883Z,72.44
2019-03-23T11:03:19.768Z,72.42
2019-03-23T11:05:54.261Z,73.09
2019-03-23T11:08:28.484Z,72.42
2019-03-23T11:11:02.821Z,71.84
2019-03-23T11:13:37.745Z,71.91
2019-03-23T11:16:12.027Z,71.71
2019-03-23T11:18:46.255Z,71.92
2019-03-23T11:21:20.606Z,72.21
2019-03-23T11:23:54.841Z,72.49
2019-03-23T11:26:29.187Z,72.35
2019-03-23T11:29:03.456Z,71.23
2019-03-23T11:31:37.732Z,69.79
2019-03-23T11:34:17.735Z,66.72
2019-03-23T11:36:48.077Z,66.22
2019-03-23T11:39:22.308Z,66.85
2019-03-23T11:41:56.587Z,68.08
2019-03-23T11:44:30.880Z,69.06
2019-03-23T11:47:05.318Z,69.48
2019-03-23T11:49:39.562Z,70.78
2019-03-23T11:52:14.523Z,70.78
2019-03-23T11:54:48.749Z,71.14
2019-03-23T11:57:23.735Z,70.95
2019-03-23T11:59:57.973Z,71.93
2019-03-23T12:02:32.253Z,71.57
2019-03-23T12:05:08.268Z,70.40
2019-03-23T12:07:42.539Z,70.37
2019-03-23T12:10:16.880Z,70.10
2019-03-23T12:12:51.250Z,71.16
2019-03-23T12:15:25.470Z,71.94
2019-03-23T12:17:59.746Z,73.59
2019-03-23T12:20:34.291Z,73.76
2019-03-23T12:23:09.616Z,73.00
2019-03-23T12:25:43.953Z,73.01
2019-03-23T12:28:18.233Z,72.15
2019-03-23T12:30:52.545Z,71.45
2019-03-23T12:33:26.852Z,70.13
2019-03-23T12:36:01.165Z,69.01
2019-03-23T12:38:35.449Z,69.21
2019-03-23T12:41:22.540Z,70.48
2019-03-23T12:43:46.492Z,71.75
2019-03-23T12:46:20.742Z,72.88
2019-03-23T12:48:55.090Z,72.90
2019-03-23T12:51:29.341Z,72.86
2019-03-23T12:54:03.993Z,72.19
2019-03-23T12:56:38.230Z,70.30
2019-03-23T12:59:12.506Z,70.05
2019-03-23T13:01:46.808Z,69.39
2019-03-23T13:04:21.096Z,68.36
2019-03-23T13:06:55.696Z,67.80
2019-03-23T13:09:30.017Z,67.53
2019-03-23T13:12:04.624Z,67.96
2019-03-23T13:14:38.903Z,67.96
2019-03-23T13:17:13.134Z,67.71
2019-03-23T13:19:47.406Z,67.49
2019-03-23T13:22:22.027Z,67.18
2019-03-23T13:24:56.348Z,66.85
2019-03-23T13:27:30.588Z,66.90
2019-03-23T13:30:05.702Z,67.42
2019-03-23T13:32:39.939Z,67.88
2019-03-23T13:35:14.378Z,67.74
2019-03-23T13:37:48.608Z,67.29
2019-03-23T13:40:22.871Z,66.19
2019-03-23T13:42:57.107Z,63.81
2019-03-23T13:45:31.727Z,56.81
2019-03-23T13:48:06.053Z,49.42
2019-03-23T13:50:40.989Z,45.60
2019-03-23T13:53:15.223Z,47.97
2019-03-23T13:55:49.815Z,50.58
2019-03-23T13:58:24.088Z,50.58
2019-03-23T14:00:58.403Z,51.74
2019-03-23T14:03:32.782Z,52.43
2019-03-23T14:06:07.128Z,53.35
2019-03-23T14:08:41.952Z,47.05
2019-03-23T14:11:16.543Z,43.48
2019-03-23T14:13:50.798Z,38.71
2019-03-23T14:16:25.060Z,36.33
2019-03-23T14:18:59.303Z,34.28
2019-03-23T14:21:35.064Z,34.62
2019-03-23T14:24:09.653Z,33.74
2019-03-23T14:26:43.929Z,32.43
2019-03-23T14:29:18.182Z,31.43
2019-03-23T14:31:55.510Z,32.07
2019-03-23T14:34:29.784Z,34.29
2019-03-23T14:37:04.049Z,38.98
2019-03-23T14:39:38.288Z,41.89
2019-03-23T14:42:12.568Z,43.53
2019-03-23T14:44:46.814Z,43.66
2019-03-23T14:47:21.124Z,42.02
2019-03-23T14:49:55.374Z,40.78
2019-03-23T14:52:29.680Z,39.85
2019-03-23T14:55:04.421Z,39.02
2019-03-23T14:57:40.439Z,39.10
2019-03-23T15:00:17.281Z,38.80
2019-03-23T15:02:51.567Z,39.96
2019-03-23T15:05:25.798Z,38.14
2019-03-23T15:08:00.419Z,39.40
2019-03-23T15:10:34.936Z,38.59
2019-03-23T15:13:09.213Z,38.13
2019-03-23T15:15:43.461Z,37.86
2019-03-23T15:18:17.742Z,38.24
2019-03-23T15:20:51.979Z,37.40
2019-03-23T15:23:26.300Z,37.50
2019-03-23T15:26:00.530Z,38.33
2019-03-23T15:28:34.988Z,38.18
2019-03-23T15:31:09.232Z,37.94
2019-03-23T15:33:43.543Z,38.48
2019-03-23T15:36:17.784Z,41.11
2019-03-23T15:38:52.078Z,42.17
2019-03-23T15:41:26.313Z,44.47
2019-03-23T15:44:00.655Z,45.70
2019-03-23T15:46:34.919Z,47.13
2019-03-23T15:49:09.514Z,47.94
2019-03-23T15:51:43.765Z,49.29
2019-03-23T15:54:18.390Z,50.10
2019-03-23T15:56:52.628Z,50.33
2019-03-23T15:59:26.903Z,51.18
2019-03-23T16:02:01.142Z,51.97
2019-03-23T16:04:35.407Z,53.65
2019-03-23T16:07:10.296Z,52.55
2019-03-23T16:09:44.568Z,52.96
2019-03-23T16:12:18.900Z,53.75
2019-03-23T16:14:53.214Z,54.78
2019-03-23T16:17:27.457Z,55.97
2019-03-23T16:20:02.053Z,57.17
2019-03-23T16:22:36.356Z,58.02
2019-03-23T16:25:10.902Z,58.61
2019-03-23T16:27:45.431Z,59.79
2019-03-23T16:30:29.404Z,59.43
2019-03-23T16:33:03.640Z,59.42
2019-03-23T16:35:37.928Z,59.93
2019-03-23T16:38:12.273Z,61.54
2019-03-23T16:40:49.605Z,61.87
2019-03-23T16:43:23.837Z,62.81
2019-03-23T16:45:58.268Z,62.73
2019-03-23T16:48:32.505Z,62.41
2019-03-23T16:51:06.844Z,61.84
2019-03-23T16:53:41.154Z,62.17
2019-03-23T16:56:15.444Z,61.86
2019-03-23T16:58:49.712Z,62.56
2019-03-23T17:01:24.036Z,61.11
2019-03-23T17:03:58.275Z,61.27
2019-03-23T17:06:32.754Z,61.76
2019-03-23T17:09:07.120Z,61.71
2019-03-23T17:11:41.399Z,62.16
2019-03-23T17:14:15.746Z,62.59
2019-03-23T17:16:50.016Z,62.93
2019-03-23T17:19:24.240Z,63.04
2019-03-23T17:21:58.539Z,63.45
2019-03-23T17:24:32.789Z,64.12
2019-03-23T17:27:07.053Z,64.82
2019-03-23T17:29:41.290Z,64.71
2019-03-23T17:32:15.631Z,65.47
2019-03-23T17:34:50.129Z,65.98
2019-03-23T17:37:25.244Z,66.23
2019-03-23T17:39:59.481Z,67.03
2019-03-23T17:42:33.956Z,66.80
2019-03-23T17:45:09.238Z,67.36
2019-03-23T17:47:43.506Z,67.08
2019-03-23T17:50:17.723Z,66.83
2019-03-23T17:52:56.056Z,66.88
2019-03-23T17:55:30.296Z,66.98
2019-03-23T17:58:04.689Z,67.48
2019-03-23T18:00:38.927Z,68.30
2019-03-23T18:03:14.452Z,68.47
2019-03-23T18:05:48.673Z,68.75
2019-03-23T18:08:23.009Z,68.76
2019-03-23T18:10:57.251Z,68.97
2019-03-23T18:13:31.607Z,69.61
2019-03-23T18:16:06.684Z,69.64
2019-03-23T18:18:41.271Z,70.95
2019-03-23T18:21:15.585Z,70.96
2019-03-23T18:23:49.855Z,70.96
2019-03-23T18:26:24.156Z,71.33
2019-03-23T18:28:59.427Z,72.40
2019-03-23T18:31:33.659Z,72.40
2019-03-23T18:34:07.949Z,73.12
2019-03-23T18:36:42.807Z,73.37
2019-03-23T18:39:18.013Z,74.23
2019-03-23T18:41:52.329Z,74.23
2019-03-23T18:44:28.009Z,75.02
2019-03-23T18:47:02.227Z,75.02
2019-03-23T18:49:36.676Z,75.23
2019-03-23T18:52:10.989Z,75.08
2019-03-23T18:54:45.331Z,75.08
2019-03-23T18:57:19.575Z,75.24
2019-03-23T18:59:53.843Z,75.24
2019-03-23T19:02:28.152Z,75.79
2019-03-23T19:05:02.463Z,76.13
2019-03-23T19:07:36.691Z,76.83
2019-03-23T19:10:11.607Z,77.24
2019-03-23T19:12:45.858Z,78.28
2019-03-23T19:15:20.144Z,79.34
2019-03-23T19:17:54.430Z,79.34
2019-03-23T19:20:28.702Z,80.08
2019-03-23T19:23:03.275Z,80.08
2019-03-23T19:25:37.696Z,80.46
2019-03-23T19:28:12.085Z,80.29
2019-03-23T19:30:46.458Z,80.29
2019-03-23T19:33:20.686Z,80.77
2019-03-23T19:35:55.067Z,81.20
2019-03-23T19:38:29.306Z,81.20
2019-03-23T19:41:05.529Z,81.25
2019-03-23T19:43:48.314Z,81.05
2019-03-23T19:46:15.578Z,81.05
2019-03-23T19:48:49.816Z,81.30
2019-03-23T19:51:24.078Z,81.44
2019-03-23T19:53:58.565Z,81.53
2019-03-23T19:56:32.880Z,82.10
2019-03-23T19:59:07.193Z,81.99
2019-03-23T20:01:41.583Z,82.38
2019-03-23T20:04:15.810Z,82.61
2019-03-23T20:06:50.925Z,82.71
2019-03-23T20:09:25.162Z,82.66
2019-03-23T20:11:59.821Z,82.46
2019-03-23T20:14:34.356Z,82.03
2019-03-23T20:17:08.623Z,81.84
2019-03-23T20:19:43.008Z,81.71
2019-03-23T20:22:17.553Z,81.90
2019-03-23T20:24:52.139Z,82.20
2019-03-23T20:27:26.404Z,82.48
2019-03-23T20:30:00.638Z,82.76
2019-03-23T20:32:34.915Z,82.95
2019-03-23T20:35:10.596Z,83.20
2019-03-23T20:37:45.359Z,83.23
2019-03-23T20:40:19.590Z,83.35
2019-03-23T20:42:54.087Z,83.46
2019-03-23T20:45:32.000Z,83.74
2019-03-23T20:48:06.406Z,83.73
2019-03-23T20:50:41.815Z,83.74
2019-03-23T20:53:18.569Z,83.87
2019-03-23T20:55:52.809Z,84.01
2019-03-23T20:58:27.101Z,84.25
2019-03-23T21:01:01.334Z,84.51
2019-03-23T21:03:35.609Z,84.70
2019-03-23T21:06:09.846Z,84.68
2019-03-23T21:08:44.111Z,84.69
2019-03-23T21:11:18.342Z,84.73
2019-03-23T21:13:52.919Z,84.75
2019-03-23T21:16:27.162Z,84.78
2019-03-23T21:19:01.514Z,84.75
2019-03-23T21:21:35.978Z,84.80
2019-03-23T21:24:10.260Z,84.70
2019-03-23T21:26:44.488Z,84.62
2019-03-23T21:29:18.746Z,84.51
2019-03-23T21:31:52.980Z,84.46
2019-03-23T21:34:27.262Z,84.30
2019-03-23T21:37:01.499Z,84.36
2019-03-23T21:39:35.772Z,84.80
2019-03-23T21:42:10.034Z,84.95
2019-03-23T21:44:44.346Z,85.20
2019-03-23T21:47:18.573Z,85.32
2019-03-23T21:49:52.836Z,85.62
2019-03-23T21:52:27.069Z,85.61
2019-03-23T21:55:01.400Z,85.72
2019-03-23T21:57:35.707Z,86.25
2019-03-23T22:00:10.949Z,86.13
2019-03-23T22:02:45.176Z,86.32
2019-03-23T22:05:19.683Z,86.65
2019-03-23T22:07:53.934Z,86.62
2019-03-23T22:10:28.411Z,86.65
2019-03-23T22:13:02.640Z,86.68
2019-03-23T22:15:37.025Z,86.85
2019-03-23T22:18:11.551Z,87.28
2019-03-23T22:20:45.840Z,87.68
2019-03-23T22:23:21.684Z,87.53
2019-03-23T22:25:56.658Z,87.46
2019-03-23T22:28:31.169Z,87.57
2019-03-23T22:31:05.613Z,87.65
2019-03-23T22:33:39.847Z,87.71
2019-03-23T22:36:14.750Z,87.72
2019-03-23T22:38:48.979Z,87.84
2019-03-23T22:41:23.597Z,87.95
2019-03-23T22:43:57.841Z,88.10
2019-03-23T22:46:32.133Z,88.26
2019-03-23T22:49:06.444Z,88.38
2019-03-23T22:51:40.729Z,88.06
2019-03-23T22:54:14.959Z,87.89
2019-03-23T22:56:49.252Z,87.95
2019-03-23T22:59:23.520Z,87.96
2019-03-23T23:01:57.828Z,88.29
2019-03-23T23:04:32.059Z,88.39
2019-03-23T23:07:06.352Z,88.38
2019-03-23T23:09:40.871Z,88.31
2019-03-23T23:12:15.202Z,88.31
2019-03-23T23:14:49.426Z,88.32
2019-03-23T23:17:23.699Z,88.26
2019-03-23T23:19:57.933Z,88.24
2019-03-23T23:22:32.207Z,88.15
2019-03-23T23:25:07.175Z,88.20
2019-03-23T23:27:41.428Z,88.47
2019-03-23T23:30:17.964Z,88.41
2019-03-23T23:32:52.251Z,88.52
2019-03-23T23:35:26.485Z,88.61
2019-03-23T23:38:00.859Z,88.84
2019-03-23T23:40:35.437Z,88.77
2019-03-23T23:43:09.728Z,88.79
2019-03-23T23:45:44.032Z,88.65
2019-03-23T23:48:18.336Z,88.74
2019-03-23T23:50:52.574Z,88.54
2019-03-23T23:53:27.150Z,88.43
2019-03-23T23:56:01.646Z,88.38
2019-03-23T23:58:35.942Z,88.49
